aviador You're here:

HEGN Decoded Metar

HURGHADA in EGYPT
Report Time2017-09-24 12:00:00
UTC Time2017-09-24 12:16:23
Flight Rules vfr VFR
Wind010° at 20 kt
W.Decomp.*RWY 34: 18.0 kt HW 8.8 kt RCW
W.Rank010° ranks 5
Current wind is above 010° avg. (13.3)
Visibility9999 m
Phenomena:N/A
Clouds:N/A
Expected CloudBase > 6,800 ft AGL from Temp-Dew spread
CeilingNone
Temp32°C (ISA +17)
Dew Point15°C (36% RH)
Heat Index31.6°C
AAT26.4°C
QNH1010 hPa
Density Alt2,326 ft
Elevation46 ft
Report Wrong Elevation
Raw Report
METAR HEGN 241200Z 01020KT CAVOK 32/15 Q1010 NOSIG=

Extra information for HEGN:More info

Metar Taf Metar & Taf Last 4 Metars F.Rules Stats Wind Profile Meteogram Temp Stats Airport Information Weather charts Add Link Nearby VenuesMetar ALERT Operation Metar Decoded Social comments